Time;durP1;ratioP1;P1;durP2;ratioP2;P2;SDS_P1;SDS_P2;PMS_P1;PMS_P2;Temp;Humidity;BMP_temperature;BMP_pressure;BME280_temperature;BME280_humidity;BME280_pressure;Samples;Min_cycle;Max_cycle;Signal;HPM_P1;HPM_P2
2022/03/07 00:01:40;;;;;;;;;;;2.00;66.00;;;;;;5073885;28;19908;-71
2022/03/07 00:04:05;;;;;;;;;;;1.90;65.70;;;;;;5075089;28;19913;-71
2022/03/07 00:06:31;;;;;;;;;;;1.70;65.70;;;;;;5073647;28;20367;-71
2022/03/07 00:08:57;;;;;;;;;;;1.70;66.40;;;;;;5073987;28;19913;-71
2022/03/07 00:11:22;;;;;;;;;;;1.60;66.70;;;;;;5075102;28;19915;-71
2022/03/07 00:13:48;;;;;;;;;;;1.80;67.10;;;;;;5057063;28;20155;-71
2022/03/07 00:16:14;;;;;;;;;;;2.00;65.80;;;;;;5073487;28;19954;-71
2022/03/07 00:18:40;;;;;;;;;;;2.10;65.50;;;;;;5073731;28;19913;-71
2022/03/07 00:21:06;;;;;;;;;;;2.20;64.90;;;;;;5074940;28;20360;-71
2022/03/07 00:23:32;;;;;;;;;;;2.10;65.00;;;;;;5074912;28;19916;-71
2022/03/07 00:25:58;;;;;;;;;;;2.30;65.00;;;;;;5074704;28;19912;-71
2022/03/07 00:28:23;;;;;;;;;;;2.30;64.50;;;;;;5073570;28;19954;-71
2022/03/07 00:30:49;;;;;;;;;;;2.30;64.20;;;;;;5073899;28;19954;-71
2022/03/07 00:33:16;;;;;;;;;;;2.20;64.50;;;;;;5074613;28;19969;-72
2022/03/07 00:35:42;;;;;;;;;;;2.30;64.70;;;;;;5069048;23;20375;-72
2022/03/07 00:38:08;;;;;;;;;;;2.10;64.50;;;;;;5016700;28;19909;-72
2022/03/07 00:40:33;;;;;;;;;;;2.10;64.90;;;;;;5034543;28;20288;-73
2022/03/07 00:42:59;;;;;;;;;;;1.90;65.40;;;;;;5034566;28;19955;-73
2022/03/07 00:45:25;;;;;;;;;;;1.90;66.00;;;;;;5032724;28;19913;-73
2022/03/07 00:47:50;;;;;;;;;;;2.00;66.10;;;;;;5034355;28;20335;-72
2022/03/07 00:50:16;;;;;;;;;;;1.80;65.70;;;;;;5034355;28;19955;-72
2022/03/07 00:52:42;;;;;;;;;;;1.90;65.60;;;;;;5034224;28;19909;-72
2022/03/07 00:55:08;;;;;;;;;;;1.90;65.70;;;;;;5034183;28;20400;-72
2022/03/07 00:57:34;;;;;;;;;;;1.80;66.20;;;;;;5034057;28;19916;-72
2022/03/07 00:59:59;;;;;;;;;;;1.50;66.00;;;;;;5032859;28;20295;-73
2022/03/07 01:02:25;;;;;;;;;;;1.30;67.80;;;;;;5034092;28;20424;-73
2022/03/07 01:04:51;;;;;;;;;;;1.40;67.30;;;;;;5033882;28;19916;-73
2022/03/07 01:07:17;;;;;;;;;;;1.50;67.50;;;;;;5033900;28;20391;-73
2022/03/07 01:09:42;;;;;;;;;;;1.70;66.70;;;;;;5033877;28;19909;-73
2022/03/07 01:12:08;;;;;;;;;;;1.80;66.30;;;;;;5032701;28;19909;-73
2022/03/07 01:14:34;;;;;;;;;;;1.90;66.10;;;;;;5033714;28;20292;-73
2022/03/07 01:16:59;;;;;;;;;;;1.80;65.80;;;;;;5033758;28;19916;-73
2022/03/07 01:19:25;;;;;;;;;;;1.80;66.00;;;;;;5033794;28;19967;-73
2022/03/07 01:21:51;;;;;;;;;;;1.70;66.00;;;;;;5033688;28;19909;-73
2022/03/07 01:24:17;;;;;;;;;;;1.40;66.60;;;;;;5032465;28;19914;-73
2022/03/07 01:26:43;;;;;;;;;;;1.30;68.10;;;;;;5033430;28;19919;-73
2022/03/07 01:29:09;;;;;;;;;;;1.20;67.70;;;;;;5033586;28;19909;-72
2022/03/07 01:31:34;;;;;;;;;;;1.00;68.50;;;;;;5033573;28;19996;-72
2022/03/07 01:34:00;;;;;;;;;;;1.10;68.70;;;;;;5033479;28;19909;-72
2022/03/07 01:36:26;;;;;;;;;;;1.20;68.50;;;;;;5033203;28;19995;-72
2022/03/07 01:38:51;;;;;;;;;;;1.20;68.10;;;;;;5033386;28;19913;-72
2022/03/07 01:41:17;;;;;;;;;;;1.10;68.20;;;;;;5032657;28;19909;-72
2022/03/07 01:43:43;;;;;;;;;;;1.00;68.50;;;;;;5033016;28;20510;-72
2022/03/07 01:46:09;;;;;;;;;;;0.90;69.40;;;;;;5015306;28;19924;-72
2022/03/07 01:48:38;;;;;;;;;;;0.80;69.80;;;;;;5033369;28;19913;-73
2022/03/07 01:51:04;;;;;;;;;;;0.80;70.20;;;;;;5033221;28;20000;-73
2022/03/07 01:53:29;;;;;;;;;;;0.90;69.70;;;;;;5033108;28;20347;-73
2022/03/07 01:55:55;;;;;;;;;;;1.20;69.30;;;;;;5031685;28;19944;-73
2022/03/07 01:58:22;;;;;;;;;;;1.10;68.50;;;;;;5031775;28;19909;-73
2022/03/07 02:00:47;;;;;;;;;;;1.10;68.90;;;;;;5032999;28;19910;-73
2022/03/07 02:03:13;;;;;;;;;;;1.00;69.00;;;;;;5033091;28;19909;-72
2022/03/07 02:05:39;;;;;;;;;;;0.90;69.40;;;;;;5032612;28;19917;-73
2022/03/07 02:08:06;;;;;;;;;;;0.90;69.60;;;;;;5032900;28;19932;-73
2022/03/07 02:10:31;;;;;;;;;;;1.20;69.00;;;;;;5032883;28;19913;-73
2022/03/07 02:12:57;;;;;;;;;;;1.10;68.90;;;;;;5031504;28;19963;-73
2022/03/07 02:15:23;;;;;;;;;;;1.30;68.80;;;;;;5032723;28;20380;-73
2022/03/07 02:17:48;;;;;;;;;;;1.20;68.10;;;;;;5031339;28;20292;-73
2022/03/07 02:20:15;;;;;;;;;;;1.20;68.40;;;;;;5032893;28;19917;-73
2022/03/07 02:22:41;;;;;;;;;;;1.10;68.90;;;;;;5031408;28;19917;-73
2022/03/07 02:25:07;;;;;;;;;;;1.10;68.90;;;;;;5031302;28;19913;-73
2022/03/07 02:27:33;;;;;;;;;;;1.00;68.70;;;;;;5032514;28;20394;-73
2022/03/07 02:30:05;;;;;;;;;;;1.00;69.40;;;;;;5032635;28;20279;-73
2022/03/07 02:32:31;;;;;;;;;;;1.20;68.90;;;;;;5031478;28;19916;-73
2022/03/07 02:34:56;;;;;;;;;;;1.20;68.30;;;;;;5031153;28;19909;-73
2022/03/07 02:37:22;;;;;;;;;;;1.30;68.20;;;;;;5031119;28;19921;-73
2022/03/07 02:39:48;;;;;;;;;;;1.30;67.90;;;;;;5031306;28;19909;-73
2022/03/07 02:42:13;;;;;;;;;;;1.30;67.80;;;;;;5031124;28;19913;-73
2022/03/07 02:44:39;;;;;;;;;;;1.10;68.20;;;;;;5032317;28;20012;-73
2022/03/07 02:47:05;;;;;;;;;;;1.10;68.80;;;;;;5030950;28;19909;-73
2022/03/07 02:49:30;;;;;;;;;;;1.10;68.70;;;;;;5032494;28;19924;-73
2022/03/07 02:51:56;;;;;;;;;;;1.20;68.50;;;;;;5031205;28;20319;-73
2022/03/07 02:54:22;;;;;;;;;;;1.20;68.40;;;;;;5034249;28;19947;-73
2022/03/07 02:56:47;;;;;;;;;;;1.20;68.50;;;;;;5036328;28;19909;-73
2022/03/07 02:59:13;;;;;;;;;;;1.20;68.70;;;;;;5035313;28;19910;-73
2022/03/07 03:01:39;;;;;;;;;;;1.20;68.20;;;;;;5036434;28;19909;-73
2022/03/07 03:04:05;;;;;;;;;;;0.80;68.90;;;;;;5036287;28;19920;-74
2022/03/07 03:06:30;;;;;;;;;;;0.70;69.90;;;;;;5036029;28;20021;-73
2022/03/07 03:08:56;;;;;;;;;;;0.80;69.60;;;;;;5036220;28;19916;-72
2022/03/07 03:11:22;;;;;;;;;;;0.70;69.90;;;;;;5036143;28;20364;-72
2022/03/07 03:13:47;;;;;;;;;;;0.90;69.70;;;;;;5036071;28;19909;-72
2022/03/07 03:16:13;;;;;;;;;;;0.90;69.10;;;;;;5034770;28;20004;-72
2022/03/07 03:18:38;;;;;;;;;;;0.80;69.60;;;;;;5018335;28;19909;-72
2022/03/07 03:21:04;;;;;;;;;;;0.80;69.80;;;;;;5034890;28;19917;-72
2022/03/07 03:23:30;;;;;;;;;;;0.90;69.50;;;;;;5035985;28;19909;-72
2022/03/07 03:25:55;;;;;;;;;;;0.80;69.70;;;;;;5034414;28;19913;-72
2022/03/07 03:28:23;;;;;;;;;;;0.90;69.80;;;;;;5034764;28;20286;-72
2022/03/07 03:30:49;;;;;;;;;;;0.60;69.80;;;;;;5035926;28;20432;-72
2022/03/07 03:33:15;;;;;;;;;;;0.30;71.20;;;;;;5034554;28;19916;-72
2022/03/07 03:35:41;;;;;;;;;;;0.20;71.60;;;;;;5034232;28;19917;-72
2022/03/07 03:38:08;;;;;;;;;;;0.30;71.80;;;;;;5035790;28;20000;-72
2022/03/07 03:40:34;;;;;;;;;;;0.40;71.80;;;;;;5035673;28;20749;-72
2022/03/07 03:43:00;;;;;;;;;;;0.40;71.70;;;;;;5035691;28;19909;-72
2022/03/07 03:45:26;;;;;;;;;;;0.50;72.30;;;;;;5035443;28;19913;-72
2022/03/07 03:47:51;;;;;;;;;;;0.60;71.20;;;;;;5035481;28;19997;-73
2022/03/07 03:50:17;;;;;;;;;;;0.70;70.90;;;;;;5034285;28;19916;-73
2022/03/07 03:52:43;;;;;;;;;;;0.80;71.20;;;;;;5034313;28;19909;-72
2022/03/07 03:55:10;;;;;;;;;;;0.90;70.80;;;;;;5035335;28;19921;-73
2022/03/07 03:57:36;;;;;;;;;;;0.90;69.90;;;;;;5033923;28;19990;-72
2022/03/07 04:00:03;;;;;;;;;;;0.60;71.60;;;;;;5035363;28;20398;-73
2022/03/07 04:02:28;;;;;;;;;;;0.70;70.80;;;;;;5035306;28;19910;-72
2022/03/07 04:04:54;;;;;;;;;;;0.70;70.70;;;;;;5034027;28;20274;-73
2022/03/07 04:07:20;;;;;;;;;;;0.70;70.50;;;;;;5035005;28;20404;-73
2022/03/07 04:09:45;;;;;;;;;;;0.70;70.90;;;;;;5035154;28;19909;-73
2022/03/07 04:12:11;;;;;;;;;;;0.90;70.40;;;;;;5035091;28;20288;-73
2022/03/07 04:14:37;;;;;;;;;;;1.00;70.10;;;;;;5035043;28;19915;-73
2022/03/07 04:17:02;;;;;;;;;;;1.10;69.80;;;;;;5034847;28;19909;-73
2022/03/07 04:19:28;;;;;;;;;;;1.10;69.30;;;;;;5035038;28;19999;-73
2022/03/07 04:21:53;;;;;;;;;;;1.00;69.10;;;;;;5034925;28;19920;-73
2022/03/07 04:24:20;;;;;;;;;;;0.90;70.00;;;;;;5017073;28;19913;-73
2022/03/07 04:26:46;;;;;;;;;;;0.90;70.20;;;;;;5033272;28;19961;-72
2022/03/07 04:29:12;;;;;;;;;;;1.00;70.00;;;;;;5017094;28;19952;-72
2022/03/07 04:31:39;;;;;;;;;;;0.80;70.00;;;;;;5034804;28;20347;-72
2022/03/07 04:34:06;;;;;;;;;;;0.80;70.20;;;;;;5034680;28;19941;-72
2022/03/07 04:36:32;;;;;;;;;;;0.70;70.70;;;;;;5034410;28;19940;-72
2022/03/07 04:38:58;;;;;;;;;;;0.70;70.60;;;;;;5033430;28;19916;-72
2022/03/07 04:41:24;;;;;;;;;;;0.60;71.40;;;;;;5034533;28;19913;-72
2022/03/07 04:43:49;;;;;;;;;;;0.70;71.10;;;;;;5033217;28;19916;-72
2022/03/07 04:46:15;;;;;;;;;;;0.80;70.70;;;;;;5034218;28;19925;-72
2022/03/07 04:48:40;;;;;;;;;;;1.00;70.10;;;;;;5034449;28;19956;-72
2022/03/07 04:51:06;;;;;;;;;;;0.90;70.00;;;;;;5034436;28;20269;-72
2022/03/07 04:53:32;;;;;;;;;;;1.00;70.10;;;;;;5034219;28;20357;-72
2022/03/07 04:55:58;;;;;;;;;;;1.00;70.40;;;;;;5033065;28;19936;-72
2022/03/07 04:58:23;;;;;;;;;;;0.90;69.90;;;;;;5016468;28;20333;-72
2022/03/07 05:00:49;;;;;;;;;;;1.00;69.80;;;;;;5034223;28;19955;-72
2022/03/07 05:03:15;;;;;;;;;;;1.00;69.60;;;;;;5016424;28;19913;-72
2022/03/07 05:05:40;;;;;;;;;;;0.90;70.20;;;;;;5033932;28;19913;-73
2022/03/07 05:08:06;;;;;;;;;;;1.00;70.00;;;;;;5032866;28;19936;-72
2022/03/07 05:10:31;;;;;;;;;;;1.00;69.90;;;;;;5032866;28;19909;-72
2022/03/07 05:12:57;;;;;;;;;;;1.00;69.90;;;;;;5034025;28;20434;-72
2022/03/07 05:15:23;;;;;;;;;;;0.90;70.40;;;;;;5033775;28;19909;-73
2022/03/07 05:17:51;;;;;;;;;;;0.90;70.40;;;;;;5033585;28;19909;-73
2022/03/07 05:20:17;;;;;;;;;;;0.80;70.50;;;;;;5033820;28;19909;-73
2022/03/07 05:22:42;;;;;;;;;;;0.60;71.40;;;;;;5033735;28;19920;-72
2022/03/07 05:25:08;;;;;;;;;;;0.60;71.50;;;;;;5033506;28;20369;-72
2022/03/07 05:27:34;;;;;;;;;;;0.60;71.70;;;;;;5032298;28;20011;-73
2022/03/07 05:30:00;;;;;;;;;;;0.70;71.40;;;;;;5032539;28;19999;-73
2022/03/07 05:32:26;;;;;;;;;;;0.80;71.50;;;;;;5032308;28;19915;-74
2022/03/07 05:34:51;;;;;;;;;;;0.70;71.20;;;;;;5032199;28;19921;-74
2022/03/07 05:37:17;;;;;;;;;;;0.70;71.10;;;;;;5033268;28;20331;-74
2022/03/07 05:39:43;;;;;;;;;;;0.70;71.50;;;;;;5032081;28;20361;-74
2022/03/07 05:42:08;;;;;;;;;;;0.60;71.00;;;;;;5033555;28;20004;-74
2022/03/07 05:44:34;;;;;;;;;;;0.70;71.60;;;;;;5032045;28;20377;-74
2022/03/07 05:46:59;;;;;;;;;;;0.70;71.80;;;;;;5031730;28;20324;-73
2022/03/07 05:49:25;;;;;;;;;;;0.80;71.50;;;;;;5032000;28;19909;-74
2022/03/07 05:51:51;;;;;;;;;;;0.70;71.40;;;;;;5033304;28;19914;-74
2022/03/07 05:54:17;;;;;;;;;;;0.50;72.20;;;;;;5033022;28;19963;-72
2022/03/07 05:56:42;;;;;;;;;;;0.40;72.60;;;;;;5031756;28;19955;-73
2022/03/07 05:59:08;;;;;;;;;;;0.30;73.00;;;;;;5033144;28;19909;-73
2022/03/07 06:01:34;;;;;;;;;;;0.20;73.70;;;;;;5032057;28;19940;-73
2022/03/07 06:03:59;;;;;;;;;;;0.30;73.20;;;;;;5032925;28;19909;-73
2022/03/07 06:06:25;;;;;;;;;;;0.20;72.70;;;;;;5031495;28;20296;-73
2022/03/07 06:08:51;;;;;;;;;;;0.20;73.00;;;;;;5032901;28;19909;-73
2022/03/07 06:11:16;;;;;;;;;;;0.20;73.00;;;;;;5032914;28;19959;-73
2022/03/07 06:13:42;;;;;;;;;;;0.30;73.20;;;;;;5032840;28;19909;-73
2022/03/07 06:16:08;;;;;;;;;;;0.50;72.50;;;;;;5032692;28;20000;-73
2022/03/07 06:18:34;;;;;;;;;;;0.60;71.90;;;;;;5032845;28;19951;-72
2022/03/07 06:21:00;;;;;;;;;;;0.50;71.90;;;;;;5031460;28;20337;-72
2022/03/07 06:23:25;;;;;;;;;;;0.50;71.80;;;;;;5032692;28;19917;-72
2022/03/07 06:25:51;;;;;;;;;;;0.40;72.00;;;;;;5027866;28;19923;-72
2022/03/07 06:28:17;;;;;;;;;;;0.50;71.80;;;;;;5021556;28;19909;-72
2022/03/07 06:30:49;;;;;;;;;;;0.30;72.00;;;;;;5003177;28;19918;-72
2022/03/07 06:33:15;;;;;;;;;;;0.20;73.00;;;;;;5012686;28;19921;-72
2022/03/07 06:35:41;;;;;;;;;;;0.20;73.20;;;;;;5084943;23;19929;-76
2022/03/07 06:38:07;;;;;;;;;;;0.40;72.70;;;;;;4996059;28;20004;-76
2022/03/07 06:40:32;;;;;;;;;;;0.50;72.10;;;;;;4996650;28;19932;-76
2022/03/07 06:43:00;;;;;;;;;;;0.60;71.90;;;;;;5021337;28;19920;-76
2022/03/07 06:45:27;;;;;;;;;;;0.60;71.50;;;;;;5032522;28;19921;-76
2022/03/07 06:47:53;;;;;;;;;;;0.70;71.80;;;;;;5014682;28;19915;-74
2022/03/07 06:50:18;;;;;;;;;;;0.50;72.60;;;;;;4996491;28;19913;-74
2022/03/07 06:52:44;;;;;;;;;;;0.40;72.20;;;;;;5012507;28;19913;-74
2022/03/07 06:55:11;;;;;;;;;;;0.40;72.60;;;;;;5013044;28;20308;-74
2022/03/07 06:57:37;;;;;;;;;;;0.40;72.50;;;;;;5013044;28;20344;-74
2022/03/07 07:00:04;;;;;;;;;;;0.40;72.10;;;;;;5018798;28;19909;-74
2022/03/07 07:02:29;;;;;;;;;;;0.40;72.30;;;;;;5031317;28;19913;-74
2022/03/07 07:04:55;;;;;;;;;;;0.20;71.90;;;;;;5031165;28;19971;-74
2022/03/07 07:07:21;;;;;;;;;;;0.30;72.20;;;;;;5032262;28;19909;-74
2022/03/07 07:09:46;;;;;;;;;;;0.30;72.30;;;;;;5031253;28;19909;-74
2022/03/07 07:12:12;;;;;;;;;;;0.20;72.10;;;;;;5032652;28;20047;-74
2022/03/07 07:14:38;;;;;;;;;;;0.40;72.20;;;;;;5030912;28;19941;-76
2022/03/07 07:17:03;;;;;;;;;;;0.60;72.00;;;;;;5031088;28;19916;-76
2022/03/07 07:19:29;;;;;;;;;;;0.70;71.20;;;;;;5031627;28;19910;-76
2022/03/07 07:21:55;;;;;;;;;;;0.60;71.70;;;;;;5031480;28;19932;-76
2022/03/07 07:24:21;;;;;;;;;;;0.70;71.10;;;;;;5021644;28;19913;-76
2022/03/07 07:26:46;;;;;;;;;;;0.60;70.70;;;;;;5021019;28;19921;-74
2022/03/07 07:29:12;;;;;;;;;;;0.50;71.30;;;;;;5008560;28;20349;-74
2022/03/07 07:31:38;;;;;;;;;;;0.50;71.50;;;;;;5014695;28;19917;-77
2022/03/07 07:34:03;;;;;;;;;;;0.60;70.90;;;;;;5012434;28;19910;-76
2022/03/07 07:36:29;;;;;;;;;;;0.30;71.10;;;;;;5011212;28;19917;-76
2022/03/07 07:38:55;;;;;;;;;;;0.30;71.40;;;;;;5013571;28;19984;-76
2022/03/07 07:41:21;;;;;;;;;;;0.50;71.10;;;;;;4998128;28;19932;-76
2022/03/07 07:43:49;;;;;;;;;;;0.80;70.80;;;;;;5004642;28;19931;-76
2022/03/07 07:46:15;;;;;;;;;;;0.90;70.30;;;;;;5029984;28;19925;-76
2022/03/07 07:48:40;;;;;;;;;;;0.80;70.00;;;;;;4998858;28;19938;-75
2022/03/07 07:51:07;;;;;;;;;;;0.80;70.00;;;;;;5026934;28;20353;-76
2022/03/07 07:53:32;;;;;;;;;;;0.80;70.20;;;;;;5034449;28;19917;-75
2022/03/07 07:55:58;;;;;;;;;;;0.90;70.40;;;;;;5034408;28;19913;-74
2022/03/07 07:58:24;;;;;;;;;;;1.00;69.80;;;;;;5026307;28;19940;-75
2022/03/07 08:00:49;;;;;;;;;;;1.10;69.30;;;;;;5013541;28;19914;-75
2022/03/07 08:03:15;;;;;;;;;;;0.80;69.90;;;;;;5013375;28;19917;-75
2022/03/07 08:05:40;;;;;;;;;;;0.80;70.40;;;;;;5013767;28;20281;-75
2022/03/07 08:08:06;;;;;;;;;;;0.90;70.10;;;;;;5013841;28;19952;-75
2022/03/07 08:10:32;;;;;;;;;;;0.90;70.00;;;;;;5015169;28;20365;-75
2022/03/07 08:12:58;;;;;;;;;;;1.10;69.80;;;;;;4997944;28;19967;-76
2022/03/07 08:15:24;;;;;;;;;;;0.90;69.60;;;;;;5014420;28;19915;-75
2022/03/07 08:17:50;;;;;;;;;;;1.00;69.90;;;;;;5016707;28;19944;-76
2022/03/07 08:20:17;;;;;;;;;;;1.10;69.80;;;;;;5011858;28;20313;-76
2022/03/07 08:22:43;;;;;;;;;;;1.10;70.10;;;;;;5012947;28;19916;-76
2022/03/07 08:25:09;;;;;;;;;;;1.30;69.50;;;;;;5012597;28;19925;-75
2022/03/07 08:27:34;;;;;;;;;;;1.50;69.00;;;;;;5012878;28;19949;-76
2022/03/07 08:30:01;;;;;;;;;;;1.40;68.70;;;;;;5012871;28;19952;-76
2022/03/07 08:32:27;;;;;;;;;;;1.20;69.40;;;;;;5011514;28;19909;-75
2022/03/07 08:34:53;;;;;;;;;;;1.20;70.00;;;;;;4995212;28;20388;-76
2022/03/07 08:37:18;;;;;;;;;;;1.30;70.00;;;;;;5015650;28;19921;-76
2022/03/07 08:39:44;;;;;;;;;;;1.40;69.60;;;;;;5011337;28;20436;-75
2022/03/07 08:42:09;;;;;;;;;;;1.70;68.70;;;;;;5012353;28;19910;-76
2022/03/07 08:44:35;;;;;;;;;;;1.80;67.90;;;;;;4996677;28;20258;-76
2022/03/07 08:47:01;;;;;;;;;;;1.80;68.30;;;;;;5013000;28;20372;-77
2022/03/07 08:49:26;;;;;;;;;;;1.80;68.60;;;;;;5012996;28;19914;-77
2022/03/07 08:51:52;;;;;;;;;;;1.90;68.30;;;;;;5013534;28;19909;-76
2022/03/07 08:54:17;;;;;;;;;;;2.10;68.00;;;;;;5012369;28;19932;-76
2022/03/07 08:56:43;;;;;;;;;;;2.20;67.20;;;;;;5012817;28;19910;-76
2022/03/07 08:59:09;;;;;;;;;;;2.00;67.10;;;;;;4996855;28;20380;-75
2022/03/07 09:01:36;;;;;;;;;;;2.20;66.50;;;;;;5013866;28;19914;-75
2022/03/07 09:04:02;;;;;;;;;;;2.30;65.60;;;;;;5012360;28;20277;-76
2022/03/07 09:06:28;;;;;;;;;;;2.30;65.40;;;;;;5012218;28;19953;-75
2022/03/07 09:08:54;;;;;;;;;;;2.20;65.80;;;;;;4996254;28;19910;-76
2022/03/07 09:11:20;;;;;;;;;;;2.00;65.60;;;;;;5012614;28;19909;-76
2022/03/07 09:13:46;;;;;;;;;;;2.10;66.30;;;;;;5015238;28;19913;-76
2022/03/07 09:16:11;;;;;;;;;;;2.00;66.20;;;;;;5012612;28;19909;-76
2022/03/07 09:18:37;;;;;;;;;;;2.10;66.70;;;;;;5028867;28;19917;-76
2022/03/07 09:21:03;;;;;;;;;;;2.30;65.90;;;;;;5013283;28;19909;-76
2022/03/07 09:23:33;;;;;;;;;;;2.40;65.30;;;;;;5011600;28;19916;-76
2022/03/07 09:25:59;;;;;;;;;;;2.30;65.40;;;;;;4995466;28;19928;-76
2022/03/07 09:28:25;;;;;;;;;;;2.50;65.40;;;;;;5014199;28;20369;-76
2022/03/07 09:30:51;;;;;;;;;;;2.60;65.30;;;;;;5013788;28;19917;-78
2022/03/07 09:33:16;;;;;;;;;;;2.70;64.90;;;;;;4996142;28;20320;-76
2022/03/07 09:35:42;;;;;;;;;;;2.90;64.20;;;;;;5027931;28;19956;-76
2022/03/07 09:38:08;;;;;;;;;;;2.80;63.90;;;;;;4995916;28;20447;-75
2022/03/07 09:40:33;;;;;;;;;;;2.80;64.30;;;;;;4995332;28;19917;-75
2022/03/07 09:42:59;;;;;;;;;;;3.00;63.80;;;;;;5011965;28;19917;-75
2022/03/07 09:45:25;;;;;;;;;;;3.10;63.30;;;;;;5011144;28;19917;-75
2022/03/07 09:47:51;;;;;;;;;;;3.20;63.10;;;;;;5011547;28;19921;-75
2022/03/07 09:50:16;;;;;;;;;;;3.70;61.70;;;;;;5012268;28;19917;-75
2022/03/07 09:52:44;;;;;;;;;;;3.70;61.00;;;;;;4995280;28;20320;-75
2022/03/07 09:55:13;;;;;;;;;;;3.80;60.50;;;;;;5011489;28;19910;-75
2022/03/07 09:57:39;;;;;;;;;;;3.70;60.70;;;;;;5010504;28;19920;-75
2022/03/07 10:00:05;;;;;;;;;;;3.80;60.90;;;;;;5011980;28;19916;-75
2022/03/07 10:02:31;;;;;;;;;;;4.00;61.40;;;;;;5011334;28;19916;-75
2022/03/07 10:04:59;;;;;;;;;;;3.90;59.80;;;;;;5010990;28;19909;-75
2022/03/07 10:07:25;;;;;;;;;;;3.90;59.80;;;;;;5011523;28;19949;-75
2022/03/07 10:10:01;;;;;;;;;;;3.90;60.00;;;;;;5011650;28;19961;-75
2022/03/07 10:12:27;;;;;;;;;;;3.60;60.20;;;;;;5011651;28;19916;-75
2022/03/07 10:14:53;;;;;;;;;;;3.80;60.10;;;;;;4994963;28;19910;-75
2022/03/07 10:17:24;;;;;;;;;;;4.20;59.80;;;;;;4994414;28;19910;-76
2022/03/07 10:19:51;;;;;;;;;;;4.50;58.50;;;;;;5011540;28;19924;-77
2022/03/07 10:22:24;;;;;;;;;;;4.20;58.10;;;;;;5012664;28;20415;-77
2022/03/07 10:24:57;;;;;;;;;;;3.60;59.50;;;;;;5008707;28;20361;-76
2022/03/07 10:27:27;;;;;;;;;;;3.50;60.50;;;;;;4992598;28;19926;-76
2022/03/07 10:29:52;;;;;;;;;;;3.70;60.40;;;;;;5011536;28;19960;-76
2022/03/07 10:32:21;;;;;;;;;;;4.50;59.00;;;;;;5010745;28;19926;-76
2022/03/07 10:34:47;;;;;;;;;;;5.20;57.30;;;;;;5011167;28;19916;-76
2022/03/07 10:37:13;;;;;;;;;;;5.10;56.70;;;;;;5010680;28;19918;-76
2022/03/07 10:39:45;;;;;;;;;;;5.40;56.50;;;;;;5012262;28;19924;-77
2022/03/07 10:42:18;;;;;;;;;;;5.60;56.20;;;;;;5012110;28;19917;-77
2022/03/07 10:44:44;;;;;;;;;;;5.70;55.30;;;;;;5008614;28;19929;-77
2022/03/07 10:47:11;;;;;;;;;;;6.10;54.70;;;;;;4995417;28;19914;-77
2022/03/07 10:49:54;;;;;;;;;;;6.00;53.90;;;;;;5012616;28;20005;-77
2022/03/07 10:52:22;;;;;;;;;;;5.80;54.60;;;;;;4991703;28;20226;-75
2022/03/07 10:54:49;;;;;;;;;;;5.80;54.90;;;;;;5014325;28;19914;-77
2022/03/07 10:57:16;;;;;;;;;;;5.80;54.80;;;;;;5011266;28;20125;-77
2022/03/07 10:59:42;;;;;;;;;;;5.90;54.60;;;;;;5011657;28;20281;-75
2022/03/07 11:02:14;;;;;;;;;;;5.90;54.30;;;;;;5010436;28;19910;-76
2022/03/07 11:04:41;;;;;;;;;;;5.90;54.50;;;;;;5010979;28;19993;-75
2022/03/07 11:07:08;;;;;;;;;;;5.70;54.40;;;;;;4994038;28;19921;-76
2022/03/07 11:09:35;;;;;;;;;;;5.20;54.90;;;;;;5012942;28;19909;-76
2022/03/07 11:12:00;;;;;;;;;;;4.90;56.20;;;;;;5011495;28;19911;-76
2022/03/07 11:14:27;;;;;;;;;;;5.00;56.10;;;;;;4996567;28;19916;-76
2022/03/07 11:16:56;;;;;;;;;;;5.50;55.20;;;;;;4997680;28;19948;-76
2022/03/07 11:19:23;;;;;;;;;;;6.10;54.10;;;;;;5015660;28;19916;-76
2022/03/07 11:21:51;;;;;;;;;;;6.60;52.50;;;;;;5015305;28;20381;-76
2022/03/07 11:24:18;;;;;;;;;;;6.80;51.70;;;;;;5009987;28;19920;-76
2022/03/07 11:26:43;;;;;;;;;;;6.80;51.00;;;;;;5015606;28;19917;-76
2022/03/07 11:29:09;;;;;;;;;;;7.00;51.10;;;;;;5001294;28;19921;-76
2022/03/07 11:31:35;;;;;;;;;;;7.80;50.70;;;;;;5014268;28;19909;-76
2022/03/07 11:34:05;;;;;;;;;;;7.90;49.50;;;;;;5013648;28;19933;-76
2022/03/07 11:36:31;;;;;;;;;;;8.00;49.50;;;;;;5015446;28;19918;-76
2022/03/07 11:39:00;;;;;;;;;;;8.20;49.60;;;;;;5013286;28;19967;-76
2022/03/07 11:41:33;;;;;;;;;;;8.00;48.60;;;;;;5013924;28;19961;-76
2022/03/07 11:44:10;;;;;;;;;;;7.80;48.50;;;;;;5014869;28;19913;-76
2022/03/07 11:46:36;;;;;;;;;;;7.90;48.40;;;;;;5009205;28;19913;-76
2022/03/07 11:49:03;;;;;;;;;;;8.30;47.90;;;;;;5014509;28;20313;-76
2022/03/07 11:51:29;;;;;;;;;;;8.80;47.40;;;;;;5013653;28;19909;-76
2022/03/07 11:53:56;;;;;;;;;;;8.70;47.60;;;;;;5013297;28;19936;-76
2022/03/07 11:56:22;;;;;;;;;;;8.40;47.80;;;;;;5013748;28;19916;-76
2022/03/07 11:58:49;;;;;;;;;;;8.60;47.20;;;;;;5013120;28;19909;-76
2022/03/07 12:01:16;;;;;;;;;;;8.30;46.90;;;;;;5015924;28;19909;-76
2022/03/07 12:03:41;;;;;;;;;;;8.10;48.30;;;;;;5012516;28;20341;-75
2022/03/07 12:06:11;;;;;;;;;;;8.60;47.40;;;;;;5013338;28;19972;-75
2022/03/07 12:08:50;;;;;;;;;;;8.30;47.50;;;;;;5013914;28;19955;-75
2022/03/07 12:11:25;;;;;;;;;;;7.90;48.40;;;;;;4993536;28;20250;-75
2022/03/07 12:13:52;;;;;;;;;;;8.20;48.00;;;;;;5013278;28;19920;-76
2022/03/07 12:16:27;;;;;;;;;;;7.70;48.90;;;;;;5013363;28;19910;-75
2022/03/07 12:19:19;;;;;;;;;;;7.90;49.70;;;;;;5013302;28;19939;-77
2022/03/07 12:21:46;;;;;;;;;;;8.50;48.40;;;;;;5009801;28;19916;-77
2022/03/07 12:24:13;;;;;;;;;;;8.80;47.70;;;;;;5015004;28;19978;-76
2022/03/07 12:26:43;;;;;;;;;;;8.40;48.10;;;;;;4995452;28;19918;-75
2022/03/07 12:29:09;;;;;;;;;;;8.70;48.10;;;;;;5014112;28;19917;-75
2022/03/07 12:31:34;;;;;;;;;;;7.90;48.80;;;;;;5013134;28;19916;-75
2022/03/07 12:34:00;;;;;;;;;;;8.10;49.30;;;;;;5014165;28;19916;-76
2022/03/07 12:36:26;;;;;;;;;;;7.50;49.60;;;;;;5013659;28;19918;-79
2022/03/07 12:38:53;;;;;;;;;;;7.00;50.30;;;;;;4998376;28;19914;-77
2022/03/07 12:41:19;;;;;;;;;;;7.20;51.50;;;;;;5013198;28;19913;-76
2022/03/07 12:43:45;;;;;;;;;;;7.80;50.70;;;;;;5013395;28;19913;-76
2022/03/07 12:46:12;;;;;;;;;;;8.30;48.60;;;;;;5012301;28;19976;-76
2022/03/07 12:48:43;;;;;;;;;;;8.30;48.70;;;;;;4998633;28;19993;-76
2022/03/07 12:51:11;;;;;;;;;;;8.30;48.50;;;;;;5016656;28;19909;-76
2022/03/07 12:53:47;;;;;;;;;;;8.40;48.40;;;;;;5017799;28;20428;-76
2022/03/07 12:56:13;;;;;;;;;;;8.40;48.20;;;;;;4999835;28;19909;-76
2022/03/07 12:58:46;;;;;;;;;;;7.80;48.00;;;;;;5011934;28;19964;-76
2022/03/07 13:01:12;;;;;;;;;;;7.60;49.40;;;;;;5014361;28;20260;-76
2022/03/07 13:03:37;;;;;;;;;;;7.60;50.10;;;;;;4996066;28;20004;-76
2022/03/07 13:06:03;;;;;;;;;;;7.80;49.60;;;;;;5012165;28;19913;-76
2022/03/07 13:08:29;;;;;;;;;;;7.70;49.50;;;;;;5011804;28;19925;-76
2022/03/07 13:10:54;;;;;;;;;;;7.70;49.00;;;;;;5011992;28;20435;-76
2022/03/07 13:13:20;;;;;;;;;;;8.00;48.60;;;;;;5011875;28;19917;-76
2022/03/07 13:15:46;;;;;;;;;;;7.70;48.20;;;;;;5014438;28;19918;-76
2022/03/07 13:18:12;;;;;;;;;;;7.30;49.00;;;;;;5015457;28;19914;-76
2022/03/07 13:20:38;;;;;;;;;;;7.10;50.00;;;;;;5011986;28;20381;-76
2022/03/07 13:23:05;;;;;;;;;;;7.10;49.80;;;;;;5010694;28;19913;-76
2022/03/07 13:25:35;;;;;;;;;;;6.70;50.50;;;;;;5006682;28;19914;-77
2022/03/07 13:28:00;;;;;;;;;;;6.50;51.50;;;;;;5016393;28;20016;-76
2022/03/07 13:30:26;;;;;;;;;;;6.50;51.50;;;;;;5016655;28;19945;-77
2022/03/07 13:33:01;;;;;;;;;;;6.20;52.30;;;;;;5012402;28;19909;-76
2022/03/07 13:35:29;;;;;;;;;;;6.00;52.70;;;;;;5011549;28;19924;-76
2022/03/07 13:37:56;;;;;;;;;;;6.00;52.20;;;;;;5013156;28;19910;-76
2022/03/07 13:40:38;;;;;;;;;;;6.00;52.10;;;;;;4994842;28;19960;-76
2022/03/07 13:43:04;;;;;;;;;;;5.80;52.90;;;;;;5007158;28;19916;-76
2022/03/07 13:45:31;;;;;;;;;;;5.60;53.20;;;;;;5010811;28;20444;-76
2022/03/07 13:48:15;;;;;;;;;;;5.10;54.20;;;;;;5012796;28;20146;-76
2022/03/07 13:50:47;;;;;;;;;;;5.40;53.90;;;;;;5008373;28;19960;-76
2022/03/07 13:53:17;;;;;;;;;;;5.30;54.00;;;;;;5011491;28;19996;-77
2022/03/07 13:55:45;;;;;;;;;;;5.40;54.40;;;;;;5010786;28;20321;-76
2022/03/07 13:58:21;;;;;;;;;;;5.40;54.00;;;;;;5012238;28;19968;-76
2022/03/07 14:00:47;;;;;;;;;;;5.50;53.20;;;;;;5012815;28;19909;-77
2022/03/07 14:03:13;;;;;;;;;;;5.30;53.70;;;;;;5012759;28;19916;-76
2022/03/07 14:05:40;;;;;;;;;;;5.50;53.20;;;;;;4994557;28;20351;-76
2022/03/07 14:08:06;;;;;;;;;;;5.60;52.90;;;;;;4996282;28;19968;-76
2022/03/07 14:10:32;;;;;;;;;;;5.50;53.30;;;;;;4994901;28;19941;-76
2022/03/07 14:12:58;;;;;;;;;;;5.20;53.80;;;;;;4994863;28;19964;-76
2022/03/07 14:15:28;;;;;;;;;;;5.10;54.00;;;;;;5011028;28;19909;-75
2022/03/07 14:17:58;;;;;;;;;;;4.90;53.80;;;;;;5012764;28;19955;-75
2022/03/07 14:20:24;;;;;;;;;;;4.80;54.30;;;;;;5013733;28;19909;-76
2022/03/07 14:22:50;;;;;;;;;;;4.90;54.60;;;;;;5013037;28;20392;-76
2022/03/07 14:25:15;;;;;;;;;;;4.90;54.40;;;;;;4994283;28;19917;-76
2022/03/07 14:27:41;;;;;;;;;;;5.00;54.60;;;;;;5010894;28;19917;-76